Kezdőlap
METAR-TAF:

METAR-TAF

Repülőterek :

Keokuk Municipal Airport

Keokuk, Iowa, Amerikai Egyesült Államok

földrajzi szélesség: 40-28N, földrajzi hosszúság: 091-26W, magasság: 205 m

Jelenlegi meteorológiai megfigyelések

A jelentés 25 perccel ezelõtt készült, 11:35 UTC
Északkeleti szél 7 kt
Hőmérséklet 23°C
Páratartalom 73%
Légköri nyomás 1017 hPa
Látótávolság: 16.1 km
Szórványos felhőzet 4300 lábon
Borult 11000 lábon

METAR: KEOK 061135Z AUTO 05007KT 10SM SCT043 OVC110 23/18 A3004 RMK AO2

Idő: 07:00 (12:00 UTC)


TAF: hiányzik

Meteorológiai megfigyelések és előrejelzések több, mint 4000 repülőtéren (METAR és TAF jelentéseket).

A térképen piros és sárga pontok jelzik az elérhető meteorológiai állomásokat.

Mozgassa az egeret a pont fölött, hogy megjelenjen az állomás neve.

Azután kattintson az időjárási megfigyelések és előrejelzések megtekintéséhez.

A térkép megváltoztatása: kattintson a fekete keresztel jelölt zöld gombra ráközelítéshez, a vonallal jelölt zöld gombra távolításhoz, vagy a zöld nyilakra a szomszédos térképek eléréséhez.


METAR-TAF: